sensor_id;sensor_type;location;lat;lon;timestamp;temperature;humidity
2465;DHT22;1244;54.326;10.074;2023-07-02T00:01:23;16.00;99.90
2465;DHT22;1244;54.326;10.074;2023-07-02T00:03:48;16.00;99.90
2465;DHT22;1244;54.326;10.074;2023-07-02T00:06:14;16.10;99.90
2465;DHT22;1244;54.326;10.074;2023-07-02T00:08:39;16.10;99.90
2465;DHT22;1244;54.326;10.074;2023-07-02T00:11:06;16.10;99.90
2465;DHT22;1244;54.326;10.074;2023-07-02T00:13:31;16.10;99.90
2465;DHT22;1244;54.326;10.074;2023-07-02T00:15:57;16.10;99.90
2465;DHT22;1244;54.326;10.074;2023-07-02T00:18:23;16.10;99.90
2465;DHT22;1244;54.326;10.074;2023-07-02T00:20:54;16.10;99.90
2465;DHT22;1244;54.326;10.074;2023-07-02T00:23:19;16.10;99.90
2465;DHT22;1244;54.326;10.074;2023-07-02T00:25:45;16.00;99.90
2465;DHT22;1244;54.326;10.074;2023-07-02T00:28:10;15.90;99.90
2465;DHT22;1244;54.326;10.074;2023-07-02T00:30:36;15.80;99.90
2465;DHT22;1244;54.326;10.074;2023-07-02T00:33:01;15.70;99.90
2465;DHT22;1244;54.326;10.074;2023-07-02T00:35:27;15.70;99.90
2465;DHT22;1244;54.326;10.074;2023-07-02T00:37:52;15.60;99.90
2465;DHT22;1244;54.326;10.074;2023-07-02T00:40:18;15.60;99.90
2465;DHT22;1244;54.326;10.074;2023-07-02T00:42:43;15.50;99.90
2465;DHT22;1244;54.326;10.074;2023-07-02T00:45:09;15.50;99.90
2465;DHT22;1244;54.326;10.074;2023-07-02T00:47:35;15.40;99.90
2465;DHT22;1244;54.326;10.074;2023-07-02T00:50:02;15.40;99.90
2465;DHT22;1244;54.326;10.074;2023-07-02T00:52:28;15.50;99.90
2465;DHT22;1244;54.326;10.074;2023-07-02T00:54:54;15.50;99.90
2465;DHT22;1244;54.326;10.074;2023-07-02T00:57:19;15.40;99.90
2465;DHT22;1244;54.326;10.074;2023-07-02T00:59:45;15.40;99.90
2465;DHT22;1244;54.326;10.074;2023-07-02T01:02:11;15.40;99.90
2465;DHT22;1244;54.326;10.074;2023-07-02T01:04:38;15.40;99.90
2465;DHT22;1244;54.326;10.074;2023-07-02T01:07:04;15.40;99.90
2465;DHT22;1244;54.326;10.074;2023-07-02T01:09:34;15.40;99.90
2465;DHT22;1244;54.326;10.074;2023-07-02T01:12:02;15.50;99.90
2465;DHT22;1244;54.326;10.074;2023-07-02T01:14:35;15.50;99.90
2465;DHT22;1244;54.326;10.074;2023-07-02T01:17:02;15.50;99.90
2465;DHT22;1244;54.326;10.074;2023-07-02T01:19:44;15.50;99.90
2465;DHT22;1244;54.326;10.074;2023-07-02T01:22:11;15.50;99.90
2465;DHT22;1244;54.326;10.074;2023-07-02T01:24:39;15.50;99.90
2465;DHT22;1244;54.326;10.074;2023-07-02T01:27:04;15.50;99.90
2465;DHT22;1244;54.326;10.074;2023-07-02T01:29:30;15.60;99.90
2465;DHT22;1244;54.326;10.074;2023-07-02T01:31:56;15.60;99.90
2465;DHT22;1244;54.326;10.074;2023-07-02T01:34:22;15.50;99.90
2465;DHT22;1244;54.326;10.074;2023-07-02T01:36:47;15.60;99.90
2465;DHT22;1244;54.326;10.074;2023-07-02T01:39:13;15.60;99.90
2465;DHT22;1244;54.326;10.074;2023-07-02T01:42:10;15.60;99.90
2465;DHT22;1244;54.326;10.074;2023-07-02T01:44:36;15.50;99.90
2465;DHT22;1244;54.326;10.074;2023-07-02T01:47:02;15.50;99.90
2465;DHT22;1244;54.326;10.074;2023-07-02T01:49:27;15.40;99.90
2465;DHT22;1244;54.326;10.074;2023-07-02T01:51:54;15.40;99.90
2465;DHT22;1244;54.326;10.074;2023-07-02T01:54:21;15.40;99.90
2465;DHT22;1244;54.326;10.074;2023-07-02T01:56:47;15.40;99.90
2465;DHT22;1244;54.326;10.074;2023-07-02T01:59:13;15.40;99.90
2465;DHT22;1244;54.326;10.074;2023-07-02T02:01:38;15.30;99.90
2465;DHT22;1244;54.326;10.074;2023-07-02T02:04:08;15.30;99.90
2465;DHT22;1244;54.326;10.074;2023-07-02T02:06:34;15.30;99.90
2465;DHT22;1244;54.326;10.074;2023-07-02T02:09:00;15.20;99.90
2465;DHT22;1244;54.326;10.074;2023-07-02T02:11:25;15.30;99.90
2465;DHT22;1244;54.326;10.074;2023-07-02T02:13:51;15.30;99.90
2465;DHT22;1244;54.326;10.074;2023-07-02T02:16:17;15.20;99.90
2465;DHT22;1244;54.326;10.074;2023-07-02T02:18:42;15.30;99.90
2465;DHT22;1244;54.326;10.074;2023-07-02T02:21:08;15.30;99.90
2465;DHT22;1244;54.326;10.074;2023-07-02T02:23:34;15.30;99.90
2465;DHT22;1244;54.326;10.074;2023-07-02T02:25:59;15.30;99.90
2465;DHT22;1244;54.326;10.074;2023-07-02T02:28:25;15.20;99.90
2465;DHT22;1244;54.326;10.074;2023-07-02T02:30:50;15.20;99.90
2465;DHT22;1244;54.326;10.074;2023-07-02T02:33:16;15.10;99.90
2465;DHT22;1244;54.326;10.074;2023-07-02T02:35:41;15.00;99.90
2465;DHT22;1244;54.326;10.074;2023-07-02T02:38:07;15.00;99.90
2465;DHT22;1244;54.326;10.074;2023-07-02T02:40:33;15.00;99.90
2465;DHT22;1244;54.326;10.074;2023-07-02T02:42:58;15.00;99.90
2465;DHT22;1244;54.326;10.074;2023-07-02T02:45:24;15.00;99.90
2465;DHT22;1244;54.326;10.074;2023-07-02T02:47:49;15.00;99.90
2465;DHT22;1244;54.326;10.074;2023-07-02T02:50:15;15.00;99.90
2465;DHT22;1244;54.326;10.074;2023-07-02T02:52:40;15.00;99.90
2465;DHT22;1244;54.326;10.074;2023-07-02T02:55:09;15.00;99.90
2465;DHT22;1244;54.326;10.074;2023-07-02T02:57:36;14.90;99.90
2465;DHT22;1244;54.326;10.074;2023-07-02T03:00:01;14.90;99.90
2465;DHT22;1244;54.326;10.074;2023-07-02T03:02:28;14.90;99.90
2465;DHT22;1244;54.326;10.074;2023-07-02T03:04:53;15.00;99.90
2465;DHT22;1244;54.326;10.074;2023-07-02T03:07:19;15.00;99.90
2465;DHT22;1244;54.326;10.074;2023-07-02T03:09:45;14.90;99.90
2465;DHT22;1244;54.326;10.074;2023-07-02T03:12:10;14.90;99.90
2465;DHT22;1244;54.326;10.074;2023-07-02T03:14:36;14.90;99.90
2465;DHT22;1244;54.326;10.074;2023-07-02T03:17:02;14.90;99.90
2465;DHT22;1244;54.326;10.074;2023-07-02T03:19:28;14.80;99.90
2465;DHT22;1244;54.326;10.074;2023-07-02T03:21:53;14.70;99.90
2465;DHT22;1244;54.326;10.074;2023-07-02T03:24:19;14.80;99.90
2465;DHT22;1244;54.326;10.074;2023-07-02T03:26:45;14.70;99.90
2465;DHT22;1244;54.326;10.074;2023-07-02T03:29:11;14.70;99.90
2465;DHT22;1244;54.326;10.074;2023-07-02T03:31:37;14.70;99.90
2465;DHT22;1244;54.326;10.074;2023-07-02T03:34:09;14.70;99.90
2465;DHT22;1244;54.326;10.074;2023-07-02T03:36:38;14.60;99.90
2465;DHT22;1244;54.326;10.074;2023-07-02T03:39:04;14.70;99.90
2465;DHT22;1244;54.326;10.074;2023-07-02T03:41:30;14.60;99.90
2465;DHT22;1244;54.326;10.074;2023-07-02T03:43:55;14.60;99.90
2465;DHT22;1244;54.326;10.074;2023-07-02T03:46:21;14.60;99.90
2465;DHT22;1244;54.326;10.074;2023-07-02T03:48:46;14.60;99.90
2465;DHT22;1244;54.326;10.074;2023-07-02T03:51:12;14.50;99.90
2465;DHT22;1244;54.326;10.074;2023-07-02T03:53:42;14.50;99.90
2465;DHT22;1244;54.326;10.074;2023-07-02T03:56:08;14.60;99.90
2465;DHT22;1244;54.326;10.074;2023-07-02T03:58:33;14.60;99.90
2465;DHT22;1244;54.326;10.074;2023-07-02T04:00:59;14.60;99.90
2465;DHT22;1244;54.326;10.074;2023-07-02T04:03:25;14.70;99.90
2465;DHT22;1244;54.326;10.074;2023-07-02T04:05:50;14.60;99.90
2465;DHT22;1244;54.326;10.074;2023-07-02T04:08:16;14.60;99.90
2465;DHT22;1244;54.326;10.074;2023-07-02T04:10:41;14.60;99.90
2465;DHT22;1244;54.326;10.074;2023-07-02T04:13:07;14.70;99.90
2465;DHT22;1244;54.326;10.074;2023-07-02T04:15:33;14.60;99.90
2465;DHT22;1244;54.326;10.074;2023-07-02T04:17:58;14.60;99.90
2465;DHT22;1244;54.326;10.074;2023-07-02T04:20:24;14.70;99.90
2465;DHT22;1244;54.326;10.074;2023-07-02T04:22:51;14.70;99.90
2465;DHT22;1244;54.326;10.074;2023-07-02T04:25:16;14.80;99.90
2465;DHT22;1244;54.326;10.074;2023-07-02T04:27:45;14.90;99.90
2465;DHT22;1244;54.326;10.074;2023-07-02T04:30:11;14.90;99.90
2465;DHT22;1244;54.326;10.074;2023-07-02T04:32:37;15.00;99.90
2465;DHT22;1244;54.326;10.074;2023-07-02T04:35:07;15.10;99.90
2465;DHT22;1244;54.326;10.074;2023-07-02T04:37:32;15.10;99.90
2465;DHT22;1244;54.326;10.074;2023-07-02T04:39:58;15.10;99.90
2465;DHT22;1244;54.326;10.074;2023-07-02T04:42:23;15.10;99.90
2465;DHT22;1244;54.326;10.074;2023-07-02T04:44:55;15.10;99.90
2465;DHT22;1244;54.326;10.074;2023-07-02T04:47:21;15.10;99.90
2465;DHT22;1244;54.326;10.074;2023-07-02T04:49:47;15.00;99.90
2465;DHT22;1244;54.326;10.074;2023-07-02T04:52:12;15.10;99.90
2465;DHT22;1244;54.326;10.074;2023-07-02T04:54:38;15.20;99.90
2465;DHT22;1244;54.326;10.074;2023-07-02T04:57:04;15.20;99.90
2465;DHT22;1244;54.326;10.074;2023-07-02T04:59:29;15.10;99.90
2465;DHT22;1244;54.326;10.074;2023-07-02T05:01:55;15.20;99.90
2465;DHT22;1244;54.326;10.074;2023-07-02T05:04:20;15.20;99.90
2465;DHT22;1244;54.326;10.074;2023-07-02T05:06:46;15.20;99.90
2465;DHT22;1244;54.326;10.074;2023-07-02T05:09:11;15.10;99.90
2465;DHT22;1244;54.326;10.074;2023-07-02T05:11:37;15.20;99.90
2465;DHT22;1244;54.326;10.074;2023-07-02T05:14:02;15.10;99.90
2465;DHT22;1244;54.326;10.074;2023-07-02T05:16:28;15.30;99.90
2465;DHT22;1244;54.326;10.074;2023-07-02T05:18:53;15.50;99.90
2465;DHT22;1244;54.326;10.074;2023-07-02T05:21:19;15.60;99.90
2465;DHT22;1244;54.326;10.074;2023-07-02T05:23:45;15.40;99.90
2465;DHT22;1244;54.326;10.074;2023-07-02T05:26:11;14.80;99.90
2465;DHT22;1244;54.326;10.074;2023-07-02T05:28:36;14.60;99.90
2465;DHT22;1244;54.326;10.074;2023-07-02T05:31:02;14.40;99.90
2465;DHT22;1244;54.326;10.074;2023-07-02T05:33:27;14.20;99.90
2465;DHT22;1244;54.326;10.074;2023-07-02T05:35:53;14.30;99.90
2465;DHT22;1244;54.326;10.074;2023-07-02T05:38:19;14.20;99.90
2465;DHT22;1244;54.326;10.074;2023-07-02T05:40:45;14.20;99.90
2465;DHT22;1244;54.326;10.074;2023-07-02T05:43:11;14.20;99.90
2465;DHT22;1244;54.326;10.074;2023-07-02T05:45:37;14.30;99.90
2465;DHT22;1244;54.326;10.074;2023-07-02T05:48:02;14.30;99.90
2465;DHT22;1244;54.326;10.074;2023-07-02T05:50:28;14.30;99.90
2465;DHT22;1244;54.326;10.074;2023-07-02T05:52:53;14.40;99.90
2465;DHT22;1244;54.326;10.074;2023-07-02T05:55:19;14.40;99.90
2465;DHT22;1244;54.326;10.074;2023-07-02T05:57:45;14.50;99.90
2465;DHT22;1244;54.326;10.074;2023-07-02T06:00:11;14.50;99.90
2465;DHT22;1244;54.326;10.074;2023-07-02T06:02:37;14.60;99.90
2465;DHT22;1244;54.326;10.074;2023-07-02T06:05:02;14.60;99.90
2465;DHT22;1244;54.326;10.074;2023-07-02T06:07:28;14.60;99.90
2465;DHT22;1244;54.326;10.074;2023-07-02T06:09:53;14.60;99.90
2465;DHT22;1244;54.326;10.074;2023-07-02T06:12:22;14.90;99.90
2465;DHT22;1244;54.326;10.074;2023-07-02T06:14:48;15.10;99.90
2465;DHT22;1244;54.326;10.074;2023-07-02T06:17:14;15.10;99.90
2465;DHT22;1244;54.326;10.074;2023-07-02T06:19:40;15.30;99.90
2465;DHT22;1244;54.326;10.074;2023-07-02T06:22:06;15.50;99.90
2465;DHT22;1244;54.326;10.074;2023-07-02T06:24:31;15.70;99.90
2465;DHT22;1244;54.326;10.074;2023-07-02T06:26:57;15.90;99.90
2465;DHT22;1244;54.326;10.074;2023-07-02T06:29:23;16.10;99.90
2465;DHT22;1244;54.326;10.074;2023-07-02T06:31:49;16.30;99.90
2465;DHT22;1244;54.326;10.074;2023-07-02T06:34:14;16.20;99.90
2465;DHT22;1244;54.326;10.074;2023-07-02T06:36:40;15.80;99.90
2465;DHT22;1244;54.326;10.074;2023-07-02T06:39:06;15.50;99.90
2465;DHT22;1244;54.326;10.074;2023-07-02T06:41:31;15.10;99.90
2465;DHT22;1244;54.326;10.074;2023-07-02T06:43:57;14.80;99.90
2465;DHT22;1244;54.326;10.074;2023-07-02T06:46:22;14.70;99.90
2465;DHT22;1244;54.326;10.074;2023-07-02T06:48:48;14.20;99.90
2465;DHT22;1244;54.326;10.074;2023-07-02T06:51:14;13.60;99.90
2465;DHT22;1244;54.326;10.074;2023-07-02T06:53:41;13.40;99.90
2465;DHT22;1244;54.326;10.074;2023-07-02T06:56:08;13.30;99.90
2465;DHT22;1244;54.326;10.074;2023-07-02T06:58:34;13.40;99.90
2465;DHT22;1244;54.326;10.074;2023-07-02T07:01:00;13.40;99.90
2465;DHT22;1244;54.326;10.074;2023-07-02T07:03:26;13.50;99.90
2465;DHT22;1244;54.326;10.074;2023-07-02T07:05:51;13.70;99.90
2465;DHT22;1244;54.326;10.074;2023-07-02T07:08:17;14.20;99.90
2465;DHT22;1244;54.326;10.074;2023-07-02T07:10:42;14.10;99.90
2465;DHT22;1244;54.326;10.074;2023-07-02T07:13:10;14.00;99.90
2465;DHT22;1244;54.326;10.074;2023-07-02T07:15:36;14.10;99.90
2465;DHT22;1244;54.326;10.074;2023-07-02T07:18:02;13.90;99.90
2465;DHT22;1244;54.326;10.074;2023-07-02T07:20:28;14.00;99.90
2465;DHT22;1244;54.326;10.074;2023-07-02T07:22:54;13.80;99.90
2465;DHT22;1244;54.326;10.074;2023-07-02T07:25:19;13.80;99.90
2465;DHT22;1244;54.326;10.074;2023-07-02T07:27:45;13.80;99.90
2465;DHT22;1244;54.326;10.074;2023-07-02T07:30:11;13.90;99.90
2465;DHT22;1244;54.326;10.074;2023-07-02T07:32:37;13.90;99.90
2465;DHT22;1244;54.326;10.074;2023-07-02T07:35:02;14.00;99.90
2465;DHT22;1244;54.326;10.074;2023-07-02T07:37:28;14.00;99.90
2465;DHT22;1244;54.326;10.074;2023-07-02T07:39:53;14.10;99.90
2465;DHT22;1244;54.326;10.074;2023-07-02T07:42:20;14.40;99.90
2465;DHT22;1244;54.326;10.074;2023-07-02T07:44:46;14.70;99.90
2465;DHT22;1244;54.326;10.074;2023-07-02T07:47:12;14.90;99.90
2465;DHT22;1244;54.326;10.074;2023-07-02T07:49:37;15.10;99.90
2465;DHT22;1244;54.326;10.074;2023-07-02T07:52:03;15.20;99.90
2465;DHT22;1244;54.326;10.074;2023-07-02T07:54:32;15.40;99.90
2465;DHT22;1244;54.326;10.074;2023-07-02T07:57:00;15.40;99.90
2465;DHT22;1244;54.326;10.074;2023-07-02T07:59:25;15.50;99.90
2465;DHT22;1244;54.326;10.074;2023-07-02T08:01:50;15.60;99.90
2465;DHT22;1244;54.326;10.074;2023-07-02T08:04:16;15.90;99.90
2465;DHT22;1244;54.326;10.074;2023-07-02T08:06:41;16.20;99.90
2465;DHT22;1244;54.326;10.074;2023-07-02T08:09:07;16.50;99.90
2465;DHT22;1244;54.326;10.074;2023-07-02T08:11:33;16.70;99.90
2465;DHT22;1244;54.326;10.074;2023-07-02T08:13:59;16.20;99.90
2465;DHT22;1244;54.326;10.074;2023-07-02T08:16:25;15.60;99.90
2465;DHT22;1244;54.326;10.074;2023-07-02T08:18:50;15.30;99.90
2465;DHT22;1244;54.326;10.074;2023-07-02T08:21:16;15.30;99.90
2465;DHT22;1244;54.326;10.074;2023-07-02T08:23:42;15.20;99.90
2465;DHT22;1244;54.326;10.074;2023-07-02T08:26:09;15.10;99.90
2465;DHT22;1244;54.326;10.074;2023-07-02T08:28:36;15.00;99.90
2465;DHT22;1244;54.326;10.074;2023-07-02T08:31:01;15.00;99.90
2465;DHT22;1244;54.326;10.074;2023-07-02T08:33:27;15.20;99.90
2465;DHT22;1244;54.326;10.074;2023-07-02T08:35:52;15.30;99.90
2465;DHT22;1244;54.326;10.074;2023-07-02T08:38:18;15.30;99.90
2465;DHT22;1244;54.326;10.074;2023-07-02T08:40:43;15.60;99.90
2465;DHT22;1244;54.326;10.074;2023-07-02T08:43:09;15.90;99.90
2465;DHT22;1244;54.326;10.074;2023-07-02T08:45:35;16.20;99.90
2465;DHT22;1244;54.326;10.074;2023-07-02T08:48:01;16.30;99.90
2465;DHT22;1244;54.326;10.074;2023-07-02T08:50:27;16.40;99.90
2465;DHT22;1244;54.326;10.074;2023-07-02T08:52:54;16.60;99.90
2465;DHT22;1244;54.326;10.074;2023-07-02T08:55:19;16.90;99.90
2465;DHT22;1244;54.326;10.074;2023-07-02T08:57:53;17.00;99.90
2465;DHT22;1244;54.326;10.074;2023-07-02T09:00:19;17.40;99.90
2465;DHT22;1244;54.326;10.074;2023-07-02T09:02:46;17.60;99.90
2465;DHT22;1244;54.326;10.074;2023-07-02T09:05:12;17.50;99.90
2465;DHT22;1244;54.326;10.074;2023-07-02T09:07:49;17.50;99.90
2465;DHT22;1244;54.326;10.074;2023-07-02T09:10:28;17.70;99.90
2465;DHT22;1244;54.326;10.074;2023-07-02T09:13:05;17.90;99.90
2465;DHT22;1244;54.326;10.074;2023-07-02T09:15:38;17.80;99.90
2465;DHT22;1244;54.326;10.074;2023-07-02T09:18:15;18.20;99.90
2465;DHT22;1244;54.326;10.074;2023-07-02T09:20:42;18.40;99.90
2465;DHT22;1244;54.326;10.074;2023-07-02T09:23:08;18.40;99.90
2465;DHT22;1244;54.326;10.074;2023-07-02T09:25:38;18.30;99.90
2465;DHT22;1244;54.326;10.074;2023-07-02T09:28:19;18.30;99.90
2465;DHT22;1244;54.326;10.074;2023-07-02T09:30:51;18.30;99.90
2465;DHT22;1244;54.326;10.074;2023-07-02T09:33:17;18.20;99.90
2465;DHT22;1244;54.326;10.074;2023-07-02T09:35:44;17.60;99.90
2465;DHT22;1244;54.326;10.074;2023-07-02T09:38:11;16.90;99.90
2465;DHT22;1244;54.326;10.074;2023-07-02T09:40:46;16.30;99.90
2465;DHT22;1244;54.326;10.074;2023-07-02T09:43:14;16.90;99.90
2465;DHT22;1244;54.326;10.074;2023-07-02T09:45:50;16.80;99.90
2465;DHT22;1244;54.326;10.074;2023-07-02T09:48:16;16.70;99.90
2465;DHT22;1244;54.326;10.074;2023-07-02T09:50:44;16.80;99.90
2465;DHT22;1244;54.326;10.074;2023-07-02T09:53:11;17.70;99.90
2465;DHT22;1244;54.326;10.074;2023-07-02T09:55:41;17.90;99.90
2465;DHT22;1244;54.326;10.074;2023-07-02T09:58:07;17.70;99.90
2465;DHT22;1244;54.326;10.074;2023-07-02T10:00:33;17.90;99.90
2465;DHT22;1244;54.326;10.074;2023-07-02T10:02:59;18.20;99.90
2465;DHT22;1244;54.326;10.074;2023-07-02T10:05:29;18.50;99.90
2465;DHT22;1244;54.326;10.074;2023-07-02T10:08:12;18.90;99.90
2465;DHT22;1244;54.326;10.074;2023-07-02T10:10:42;19.00;99.90
2465;DHT22;1244;54.326;10.074;2023-07-02T10:13:07;19.10;99.90
2465;DHT22;1244;54.326;10.074;2023-07-02T10:15:33;19.30;99.90
2465;DHT22;1244;54.326;10.074;2023-07-02T10:18:03;19.80;99.90
2465;DHT22;1244;54.326;10.074;2023-07-02T10:20:37;20.00;99.90
2465;DHT22;1244;54.326;10.074;2023-07-02T10:23:04;19.90;99.90
2465;DHT22;1244;54.326;10.074;2023-07-02T10:25:35;18.80;99.90
2465;DHT22;1244;54.326;10.074;2023-07-02T10:28:20;18.30;99.90
2465;DHT22;1244;54.326;10.074;2023-07-02T10:30:47;17.50;99.90
2465;DHT22;1244;54.326;10.074;2023-07-02T10:33:17;17.20;99.90
2465;DHT22;1244;54.326;10.074;2023-07-02T10:35:48;17.90;99.90
2465;DHT22;1244;54.326;10.074;2023-07-02T10:40:42;19.30;99.90
2465;DHT22;1244;54.326;10.074;2023-07-02T10:43:07;19.80;99.90
2465;DHT22;1244;54.326;10.074;2023-07-02T10:45:34;19.60;99.90
2465;DHT22;1244;54.326;10.074;2023-07-02T10:48:10;20.10;99.90
2465;DHT22;1244;54.326;10.074;2023-07-02T10:50:36;20.40;99.90
2465;DHT22;1244;54.326;10.074;2023-07-02T10:53:03;20.50;99.90
2465;DHT22;1244;54.326;10.074;2023-07-02T10:55:28;20.80;99.90
2465;DHT22;1244;54.326;10.074;2023-07-02T10:58:08;21.30;99.90
2465;DHT22;1244;54.326;10.074;2023-07-02T11:00:49;20.90;99.90
2465;DHT22;1244;54.326;10.074;2023-07-02T11:03:19;21.10;99.90
2465;DHT22;1244;54.326;10.074;2023-07-02T11:05:46;20.70;99.90
2465;DHT22;1244;54.326;10.074;2023-07-02T11:08:12;20.20;99.90
2465;DHT22;1244;54.326;10.074;2023-07-02T11:10:38;20.60;99.90
2465;DHT22;1244;54.326;10.074;2023-07-02T11:13:12;21.30;99.90
2465;DHT22;1244;54.326;10.074;2023-07-02T11:15:38;21.70;99.90
2465;DHT22;1244;54.326;10.074;2023-07-02T11:18:14;22.00;99.90
2465;DHT22;1244;54.326;10.074;2023-07-02T11:20:41;21.80;99.90
2465;DHT22;1244;54.326;10.074;2023-07-02T11:23:37;21.10;99.90
2465;DHT22;1244;54.326;10.074;2023-07-02T11:26:02;20.90;99.90
2465;DHT22;1244;54.326;10.074;2023-07-02T11:28:30;21.10;99.90
2465;DHT22;1244;54.326;10.074;2023-07-02T11:31:00;20.70;99.90
2465;DHT22;1244;54.326;10.074;2023-07-02T11:33:37;20.20;99.90
2465;DHT22;1244;54.326;10.074;2023-07-02T11:36:04;20.00;99.90
2465;DHT22;1244;54.326;10.074;2023-07-02T11:38:30;19.80;99.90
2465;DHT22;1244;54.326;10.074;2023-07-02T11:40:55;19.90;99.90
2465;DHT22;1244;54.326;10.074;2023-07-02T11:43:21;20.20;99.90
2465;DHT22;1244;54.326;10.074;2023-07-02T11:45:47;19.80;99.90
2465;DHT22;1244;54.326;10.074;2023-07-02T11:48:12;19.60;99.90
2465;DHT22;1244;54.326;10.074;2023-07-02T11:50:38;19.30;99.90
2465;DHT22;1244;54.326;10.074;2023-07-02T11:53:03;18.70;99.90
2465;DHT22;1244;54.326;10.074;2023-07-02T11:55:29;18.80;99.90
2465;DHT22;1244;54.326;10.074;2023-07-02T11:57:55;19.30;99.90
2465;DHT22;1244;54.326;10.074;2023-07-02T12:00:20;19.20;99.90
2465;DHT22;1244;54.326;10.074;2023-07-02T12:02:46;20.00;99.90
2465;DHT22;1244;54.326;10.074;2023-07-02T12:05:11;20.00;99.90
2465;DHT22;1244;54.326;10.074;2023-07-02T12:07:37;21.30;99.90
2465;DHT22;1244;54.326;10.074;2023-07-02T12:10:02;21.80;99.90
2465;DHT22;1244;54.326;10.074;2023-07-02T12:12:28;21.50;99.90
2465;DHT22;1244;54.326;10.074;2023-07-02T12:14:54;21.30;99.90
2465;DHT22;1244;54.326;10.074;2023-07-02T12:17:19;20.60;99.90
2465;DHT22;1244;54.326;10.074;2023-07-02T12:19:44;20.20;99.90
2465;DHT22;1244;54.326;10.074;2023-07-02T12:22:10;19.70;99.90
2465;DHT22;1244;54.326;10.074;2023-07-02T12:24:35;20.10;99.90
2465;DHT22;1244;54.326;10.074;2023-07-02T12:27:02;20.70;99.90
2465;DHT22;1244;54.326;10.074;2023-07-02T12:29:27;20.70;99.90
2465;DHT22;1244;54.326;10.074;2023-07-02T12:31:53;20.70;99.90
2465;DHT22;1244;54.326;10.074;2023-07-02T12:34:18;20.50;99.90
2465;DHT22;1244;54.326;10.074;2023-07-02T12:36:44;21.00;99.90
2465;DHT22;1244;54.326;10.074;2023-07-02T12:39:09;21.90;99.90
2465;DHT22;1244;54.326;10.074;2023-07-02T12:41:36;22.40;99.90
2465;DHT22;1244;54.326;10.074;2023-07-02T12:44:02;23.10;99.90
2465;DHT22;1244;54.326;10.074;2023-07-02T12:46:29;22.80;99.90
2465;DHT22;1244;54.326;10.074;2023-07-02T12:48:54;21.60;99.90
2465;DHT22;1244;54.326;10.074;2023-07-02T12:51:20;21.90;99.90
2465;DHT22;1244;54.326;10.074;2023-07-02T12:53:45;21.50;99.90
2465;DHT22;1244;54.326;10.074;2023-07-02T12:56:11;21.70;99.90
2465;DHT22;1244;54.326;10.074;2023-07-02T12:58:37;22.00;99.90
2465;DHT22;1244;54.326;10.074;2023-07-02T13:01:02;21.80;99.90
2465;DHT22;1244;54.326;10.074;2023-07-02T13:03:30;22.40;99.90
2465;DHT22;1244;54.326;10.074;2023-07-02T13:05:56;21.50;99.90
2465;DHT22;1244;54.326;10.074;2023-07-02T13:08:21;21.00;99.90
2465;DHT22;1244;54.326;10.074;2023-07-02T13:10:47;19.90;99.90
2465;DHT22;1244;54.326;10.074;2023-07-02T13:13:12;19.60;99.90
2465;DHT22;1244;54.326;10.074;2023-07-02T13:15:38;20.20;99.90
2465;DHT22;1244;54.326;10.074;2023-07-02T13:18:03;20.00;99.90
2465;DHT22;1244;54.326;10.074;2023-07-02T13:20:29;20.50;99.90
2465;DHT22;1244;54.326;10.074;2023-07-02T13:22:55;21.10;99.90
2465;DHT22;1244;54.326;10.074;2023-07-02T13:25:20;21.00;99.90
2465;DHT22;1244;54.326;10.074;2023-07-02T13:27:46;20.70;99.90
2465;DHT22;1244;54.326;10.074;2023-07-02T13:30:11;20.40;99.90
2465;DHT22;1244;54.326;10.074;2023-07-02T13:32:37;20.00;99.90
2465;DHT22;1244;54.326;10.074;2023-07-02T13:35:03;19.90;99.90
2465;DHT22;1244;54.326;10.074;2023-07-02T13:37:28;19.60;99.90
2465;DHT22;1244;54.326;10.074;2023-07-02T13:39:54;20.10;99.90
2465;DHT22;1244;54.326;10.074;2023-07-02T13:42:19;20.50;99.90
2465;DHT22;1244;54.326;10.074;2023-07-02T13:44:45;20.20;99.90
2465;DHT22;1244;54.326;10.074;2023-07-02T13:47:11;20.00;99.90
2465;DHT22;1244;54.326;10.074;2023-07-02T13:49:37;19.50;99.90
2465;DHT22;1244;54.326;10.074;2023-07-02T13:52:02;19.20;99.90
2465;DHT22;1244;54.326;10.074;2023-07-02T13:54:29;19.20;99.90
2465;DHT22;1244;54.326;10.074;2023-07-02T13:56:56;19.30;99.90
2465;DHT22;1244;54.326;10.074;2023-07-02T13:59:22;19.20;99.90
2465;DHT22;1244;54.326;10.074;2023-07-02T14:01:48;18.70;99.90
2465;DHT22;1244;54.326;10.074;2023-07-02T14:04:14;17.90;99.90
2465;DHT22;1244;54.326;10.074;2023-07-02T14:06:40;17.10;99.90
2465;DHT22;1244;54.326;10.074;2023-07-02T14:09:06;16.80;99.90
2465;DHT22;1244;54.326;10.074;2023-07-02T14:11:32;16.90;99.90
2465;DHT22;1244;54.326;10.074;2023-07-02T14:13:58;16.80;99.90
2465;DHT22;1244;54.326;10.074;2023-07-02T14:16:23;16.80;99.90
2465;DHT22;1244;54.326;10.074;2023-07-02T14:18:49;16.80;99.90
2465;DHT22;1244;54.326;10.074;2023-07-02T14:21:15;16.60;99.90
2465;DHT22;1244;54.326;10.074;2023-07-02T14:23:41;16.20;99.90
2465;DHT22;1244;54.326;10.074;2023-07-02T14:26:06;16.30;99.90
2465;DHT22;1244;54.326;10.074;2023-07-02T14:28:33;16.40;99.90
2465;DHT22;1244;54.326;10.074;2023-07-02T14:31:03;16.70;99.90
2465;DHT22;1244;54.326;10.074;2023-07-02T14:33:31;16.80;99.90
2465;DHT22;1244;54.326;10.074;2023-07-02T14:35:58;17.10;99.90
2465;DHT22;1244;54.326;10.074;2023-07-02T14:38:24;17.70;99.90
2465;DHT22;1244;54.326;10.074;2023-07-02T14:40:50;18.20;99.90
2465;DHT22;1244;54.326;10.074;2023-07-02T14:43:16;18.40;99.90
2465;DHT22;1244;54.326;10.074;2023-07-02T14:45:48;18.20;99.90
2465;DHT22;1244;54.326;10.074;2023-07-02T14:48:14;17.80;99.90
2465;DHT22;1244;54.326;10.074;2023-07-02T14:53:16;18.50;99.90
2465;DHT22;1244;54.326;10.074;2023-07-02T14:55:42;18.40;99.90
2465;DHT22;1244;54.326;10.074;2023-07-02T14:58:07;18.80;99.90
2465;DHT22;1244;54.326;10.074;2023-07-02T15:00:33;19.00;99.90
2465;DHT22;1244;54.326;10.074;2023-07-02T15:02:59;19.00;99.90
2465;DHT22;1244;54.326;10.074;2023-07-02T15:05:24;19.20;99.90
2465;DHT22;1244;54.326;10.074;2023-07-02T15:07:50;19.30;99.90
2465;DHT22;1244;54.326;10.074;2023-07-02T15:10:17;19.10;99.90
2465;DHT22;1244;54.326;10.074;2023-07-02T15:12:42;19.00;99.90
2465;DHT22;1244;54.326;10.074;2023-07-02T15:15:08;18.70;99.90
2465;DHT22;1244;54.326;10.074;2023-07-02T15:17:34;19.00;99.90
2465;DHT22;1244;54.326;10.074;2023-07-02T15:20:00;19.20;99.90
2465;DHT22;1244;54.326;10.074;2023-07-02T15:22:25;19.50;99.90
2465;DHT22;1244;54.326;10.074;2023-07-02T15:24:51;19.00;99.90
2465;DHT22;1244;54.326;10.074;2023-07-02T15:27:16;19.30;99.90
2465;DHT22;1244;54.326;10.074;2023-07-02T15:29:42;19.40;99.90
2465;DHT22;1244;54.326;10.074;2023-07-02T15:32:07;18.80;99.90
2465;DHT22;1244;54.326;10.074;2023-07-02T15:34:33;18.80;99.90
2465;DHT22;1244;54.326;10.074;2023-07-02T15:36:58;19.20;99.90
2465;DHT22;1244;54.326;10.074;2023-07-02T15:39:24;19.10;99.90
2465;DHT22;1244;54.326;10.074;2023-07-02T15:41:52;18.80;99.90
2465;DHT22;1244;54.326;10.074;2023-07-02T15:44:17;19.00;99.90
2465;DHT22;1244;54.326;10.074;2023-07-02T15:46:42;18.70;99.90